sensor_id;sensor_type;location;lat;lon;timestamp;pressure;altitude;pressure_sealevel;temperature;humidity
36726;BME280;44936;52.086;5.150;2023-02-10T00:00:28;104046.97;;;2.10;100.00
36726;BME280;44936;52.086;5.150;2023-02-10T00:02:53;104035.03;;;2.02;100.00
36726;BME280;44936;52.086;5.150;2023-02-10T00:05:18;104028.41;;;1.95;100.00
36726;BME280;44936;52.086;5.150;2023-02-10T00:07:44;104038.38;;;2.01;100.00
36726;BME280;44936;52.086;5.150;2023-02-10T00:10:09;104033.63;;;2.05;100.00
36726;BME280;44936;52.086;5.150;2023-02-10T00:12:37;104032.72;;;2.05;100.00
36726;BME280;44936;52.086;5.150;2023-02-10T00:15:04;104044.78;;;2.04;100.00
36726;BME280;44936;52.086;5.150;2023-02-10T00:17:30;104042.31;;;2.06;100.00
36726;BME280;44936;52.086;5.150;2023-02-10T00:19:55;104038.38;;;2.01;100.00
36726;BME280;44936;52.086;5.150;2023-02-10T00:22:21;104041.88;;;2.01;100.00
36726;BME280;44936;52.086;5.150;2023-02-10T00:24:46;104050.34;;;2.09;100.00
36726;BME280;44936;52.086;5.150;2023-02-10T00:27:11;104053.19;;;2.12;100.00
36726;BME280;44936;52.086;5.150;2023-02-10T00:29:36;104047.63;;;2.07;100.00
36726;BME280;44936;52.086;5.150;2023-02-10T00:32:02;104055.03;;;2.13;100.00
36726;BME280;44936;52.086;5.150;2023-02-10T00:34:27;104060.56;;;2.07;100.00
36726;BME280;44936;52.086;5.150;2023-02-10T00:36:53;104056.94;;;2.05;100.00
36726;BME280;44936;52.086;5.150;2023-02-10T00:39:18;104056.28;;;2.08;100.00
36726;BME280;44936;52.086;5.150;2023-02-10T00:41:44;104055.59;;;2.00;100.00
36726;BME280;44936;52.086;5.150;2023-02-10T00:44:09;104051.84;;;1.96;100.00
36726;BME280;44936;52.086;5.150;2023-02-10T00:46:34;104059.09;;;2.01;100.00
36726;BME280;44936;52.086;5.150;2023-02-10T00:49:00;104063.81;;;2.05;100.00
36726;BME280;44936;52.086;5.150;2023-02-10T00:51:25;104072.03;;;2.01;100.00
36726;BME280;44936;52.086;5.150;2023-02-10T00:53:50;104076.22;;;2.09;100.00
36726;BME280;44936;52.086;5.150;2023-02-10T00:56:18;104059.88;;;1.99;100.00
36726;BME280;44936;52.086;5.150;2023-02-10T00:58:44;104069.88;;;2.05;100.00
36726;BME280;44936;52.086;5.150;2023-02-10T01:01:10;104082.97;;;2.07;100.00
36726;BME280;44936;52.086;5.150;2023-02-10T01:03:35;104068.69;;;2.02;100.00
36726;BME280;44936;52.086;5.150;2023-02-10T01:06:02;104068.69;;;2.02;100.00
36726;BME280;44936;52.086;5.150;2023-02-10T01:08:27;104066.75;;;1.99;100.00
36726;BME280;44936;52.086;5.150;2023-02-10T01:13:24;104046.34;;;1.83;100.00
36726;BME280;44936;52.086;5.150;2023-02-10T01:15:49;104029.50;;;1.78;100.00
36726;BME280;44936;52.086;5.150;2023-02-10T01:18:15;104029.13;;;1.84;100.00
36726;BME280;44936;52.086;5.150;2023-02-10T01:20:42;104029.06;;;1.74;100.00
36726;BME280;44936;52.086;5.150;2023-02-10T01:23:08;104033.59;;;1.76;100.00
36726;BME280;44936;52.086;5.150;2023-02-10T01:25:34;104034.75;;;1.69;100.00
36726;BME280;44936;52.086;5.150;2023-02-10T01:28:01;104010.34;;;1.57;100.00
36726;BME280;44936;52.086;5.150;2023-02-10T01:30:26;104019.91;;;1.58;100.00
36726;BME280;44936;52.086;5.150;2023-02-10T01:32:53;104011.13;;;1.56;100.00
36726;BME280;44936;52.086;5.150;2023-02-10T01:35:18;104013.53;;;1.45;100.00
36726;BME280;44936;52.086;5.150;2023-02-10T01:37:44;104015.72;;;1.50;100.00
36726;BME280;44936;52.086;5.150;2023-02-10T01:40:09;104008.63;;;1.48;100.00
36726;BME280;44936;52.086;5.150;2023-02-10T01:42:35;104006.53;;;1.44;100.00
36726;BME280;44936;52.086;5.150;2023-02-10T01:45:22;104015.06;;;1.42;100.00
36726;BME280;44936;52.086;5.150;2023-02-10T01:47:50;104017.56;;;1.32;100.00
36726;BME280;44936;52.086;5.150;2023-02-10T01:50:18;104001.00;;;1.30;100.00
36726;BME280;44936;52.086;5.150;2023-02-10T01:52:45;104001.50;;;1.26;100.00
36726;BME280;44936;52.086;5.150;2023-02-10T01:55:15;103996.66;;;1.21;100.00
36726;BME280;44936;52.086;5.150;2023-02-10T01:57:43;104004.72;;;1.24;100.00
36726;BME280;44936;52.086;5.150;2023-02-10T02:00:09;103995.75;;;1.20;100.00
36726;BME280;44936;52.086;5.150;2023-02-10T02:02:36;104005.84;;;1.17;100.00
36726;BME280;44936;52.086;5.150;2023-02-10T02:05:05;104002.69;;;1.11;100.00
36726;BME280;44936;52.086;5.150;2023-02-10T02:07:33;103996.47;;;1.09;100.00
36726;BME280;44936;52.086;5.150;2023-02-10T02:10:02;103958.78;;;0.83;100.00
36726;BME280;44936;52.086;5.150;2023-02-10T02:12:41;103980.59;;;0.96;100.00
36726;BME280;44936;52.086;5.150;2023-02-10T02:34:21;103966.41;;;0.82;100.00
36726;BME280;44936;52.086;5.150;2023-02-10T02:36:58;103959.00;;;0.76;100.00
36726;BME280;44936;52.086;5.150;2023-02-10T02:39:28;103956.28;;;0.75;100.00
36726;BME280;44936;52.086;5.150;2023-02-10T02:42:26;103960.53;;;0.74;100.00
36726;BME280;44936;52.086;5.150;2023-02-10T02:44:59;103939.78;;;0.64;100.00
36726;BME280;44936;52.086;5.150;2023-02-10T02:50:17;103963.31;;;0.67;100.00
36726;BME280;44936;52.086;5.150;2023-02-10T02:53:14;103970.66;;;0.63;100.00
36726;BME280;44936;52.086;5.150;2023-02-10T02:58:29;103967.28;;;0.64;100.00
36726;BME280;44936;52.086;5.150;2023-02-10T03:00:58;103960.91;;;0.60;100.00
36726;BME280;44936;52.086;5.150;2023-02-10T03:03:33;103953.84;;;0.49;100.00
36726;BME280;44936;52.086;5.150;2023-02-10T03:06:00;103965.53;;;0.54;100.00
36726;BME280;44936;52.086;5.150;2023-02-10T03:08:28;103911.72;;;0.31;100.00
36726;BME280;44936;52.086;5.150;2023-02-10T03:10:54;103913.13;;;0.27;100.00
36726;BME280;44936;52.086;5.150;2023-02-10T03:13:20;103953.72;;;0.47;100.00
36726;BME280;44936;52.086;5.150;2023-02-10T03:15:45;103948.28;;;0.44;100.00
36726;BME280;44936;52.086;5.150;2023-02-10T03:18:11;103963.75;;;0.44;100.00
36726;BME280;44936;52.086;5.150;2023-02-10T03:20:36;103951.44;;;0.42;100.00
36726;BME280;44936;52.086;5.150;2023-02-10T03:23:02;103947.31;;;0.44;100.00
36726;BME280;44936;52.086;5.150;2023-02-10T03:25:28;103951.75;;;0.45;100.00
36726;BME280;44936;52.086;5.150;2023-02-10T03:27:58;103953.75;;;0.39;100.00
36726;BME280;44936;52.086;5.150;2023-02-10T03:30:24;103946.16;;;0.40;100.00
36726;BME280;44936;52.086;5.150;2023-02-10T03:32:50;103950.91;;;0.36;100.00
36726;BME280;44936;52.086;5.150;2023-02-10T03:35:18;103939.97;;;0.30;100.00
36726;BME280;44936;52.086;5.150;2023-02-10T03:37:44;103954.06;;;0.33;100.00
36726;BME280;44936;52.086;5.150;2023-02-10T03:40:10;103953.75;;;0.39;100.00
36726;BME280;44936;52.086;5.150;2023-02-10T03:42:35;103921.38;;;0.15;100.00
36726;BME280;44936;52.086;5.150;2023-02-10T03:45:00;103915.44;;;0.16;100.00
36726;BME280;44936;52.086;5.150;2023-02-10T03:47:26;103947.22;;;0.34;100.00
36726;BME280;44936;52.086;5.150;2023-02-10T03:49:51;103971.94;;;0.49;100.00
36726;BME280;44936;52.086;5.150;2023-02-10T03:52:16;103968.16;;;0.45;100.00
36726;BME280;44936;52.086;5.150;2023-02-10T03:54:42;103953.75;;;0.39;100.00
36726;BME280;44936;52.086;5.150;2023-02-10T03:57:07;103942.22;;;0.35;100.00
36726;BME280;44936;52.086;5.150;2023-02-10T03:59:33;103951.91;;;0.46;100.00
36726;BME280;44936;52.086;5.150;2023-02-10T04:01:58;103957.06;;;0.46;100.00
36726;BME280;44936;52.086;5.150;2023-02-10T04:04:24;103960.56;;;0.47;100.00
36726;BME280;44936;52.086;5.150;2023-02-10T04:06:50;103970.25;;;0.49;100.00
36726;BME280;44936;52.086;5.150;2023-02-10T04:09:15;103965.84;;;0.48;100.00
36726;BME280;44936;52.086;5.150;2023-02-10T04:11:40;103955.28;;;0.37;100.00
36726;BME280;44936;52.086;5.150;2023-02-10T04:14:06;103969.06;;;0.46;100.00
36726;BME280;44936;52.086;5.150;2023-02-10T04:16:31;103973.47;;;0.47;100.00
36726;BME280;44936;52.086;5.150;2023-02-10T04:18:58;103973.00;;;0.42;100.00
36726;BME280;44936;52.086;5.150;2023-02-10T04:21:24;103955.75;;;0.33;100.00
36726;BME280;44936;52.086;5.150;2023-02-10T04:23:50;103983.78;;;0.47;100.00
36726;BME280;44936;52.086;5.150;2023-02-10T04:26:15;103981.97;;;0.46;100.00
36726;BME280;44936;52.086;5.150;2023-02-10T04:28:41;103985.59;;;0.48;100.00
36726;BME280;44936;52.086;5.150;2023-02-10T04:31:06;103979.84;;;0.42;100.00
36726;BME280;44936;52.086;5.150;2023-02-10T04:33:32;103993.97;;;0.45;100.00
36726;BME280;44936;52.086;5.150;2023-02-10T04:35:58;104001.69;;;0.54;100.00
36726;BME280;44936;52.086;5.150;2023-02-10T04:38:23;104014.59;;;0.54;100.00
36726;BME280;44936;52.086;5.150;2023-02-10T04:40:49;104020.03;;;0.57;100.00
36726;BME280;44936;52.086;5.150;2023-02-10T04:43:15;104017.47;;;0.57;100.00
36726;BME280;44936;52.086;5.150;2023-02-10T04:45:41;104017.19;;;0.54;100.00
36726;BME280;44936;52.086;5.150;2023-02-10T04:48:06;104025.50;;;0.60;100.00
36726;BME280;44936;52.086;5.150;2023-02-10T04:50:32;103996.25;;;0.42;100.00
36726;BME280;44936;52.086;5.150;2023-02-10T04:52:58;104021.84;;;0.58;100.00
36726;BME280;44936;52.086;5.150;2023-02-10T04:55:24;104011.16;;;0.45;100.00
36726;BME280;44936;52.086;5.150;2023-02-10T04:57:50;104019.31;;;0.49;100.00
36726;BME280;44936;52.086;5.150;2023-02-10T05:00:16;103988.66;;;0.44;100.00
36726;BME280;44936;52.086;5.150;2023-02-10T05:02:41;103972.00;;;0.32;100.00
36726;BME280;44936;52.086;5.150;2023-02-10T05:05:09;104002.78;;;0.47;100.00
36726;BME280;44936;52.086;5.150;2023-02-10T05:07:35;104018.09;;;0.54;100.00
36726;BME280;44936;52.086;5.150;2023-02-10T05:10:00;104041.75;;;0.59;100.00
36726;BME280;44936;52.086;5.150;2023-02-10T05:12:26;104050.56;;;0.61;100.00
36726;BME280;44936;52.086;5.150;2023-02-10T05:14:51;104066.63;;;0.67;100.00
36726;BME280;44936;52.086;5.150;2023-02-10T05:17:16;104057.25;;;0.59;100.00
36726;BME280;44936;52.086;5.150;2023-02-10T05:19:42;104065.88;;;0.68;100.00
36726;BME280;44936;52.086;5.150;2023-02-10T05:22:07;104065.59;;;0.65;100.00
36726;BME280;44936;52.086;5.150;2023-02-10T05:24:32;104058.28;;;0.61;100.00
36726;BME280;44936;52.086;5.150;2023-02-10T05:26:58;104088.53;;;0.71;100.00
36726;BME280;44936;52.086;5.150;2023-02-10T05:29:25;104114.28;;;0.79;100.00
36726;BME280;44936;52.086;5.150;2023-02-10T05:31:56;104126.13;;;0.86;100.00
36726;BME280;44936;52.086;5.150;2023-02-10T05:34:21;104129.63;;;0.87;100.00
36726;BME280;44936;52.086;5.150;2023-02-10T05:36:47;104138.44;;;0.89;100.00
36726;BME280;44936;52.086;5.150;2023-02-10T05:39:13;104137.69;;;0.90;100.00
36726;BME280;44936;52.086;5.150;2023-02-10T05:41:48;104149.34;;;0.95;100.00
36726;BME280;44936;52.086;5.150;2023-02-10T05:44:14;104150.56;;;0.98;100.00
36726;BME280;44936;52.086;5.150;2023-02-10T05:46:40;104137.97;;;0.93;100.00
36726;BME280;44936;52.086;5.150;2023-02-10T05:49:05;104108.22;;;0.79;100.00
36726;BME280;44936;52.086;5.150;2023-02-10T05:51:31;104139.00;;;0.95;100.00
36726;BME280;44936;52.086;5.150;2023-02-10T05:53:56;104140.81;;;0.96;100.00
36726;BME280;44936;52.086;5.150;2023-02-10T05:56:22;104119.78;;;0.82;100.00
36726;BME280;44936;52.086;5.150;2023-02-10T05:58:48;104137.69;;;0.90;100.00
36726;BME280;44936;52.086;5.150;2023-02-10T06:01:13;104122.53;;;0.75;100.00
36726;BME280;44936;52.086;5.150;2023-02-10T06:03:38;104157.09;;;0.95;100.00
36726;BME280;44936;52.086;5.150;2023-02-10T06:06:04;104124.06;;;0.73;100.00
36726;BME280;44936;52.086;5.150;2023-02-10T06:08:29;104141.78;;;0.88;100.00
36726;BME280;44936;52.086;5.150;2023-02-10T06:10:55;104158.16;;;0.97;100.00
36726;BME280;44936;52.086;5.150;2023-02-10T06:13:20;104142.53;;;0.87;100.00
36726;BME280;44936;52.086;5.150;2023-02-10T06:15:45;104154.06;;;0.99;100.00
36726;BME280;44936;52.086;5.150;2023-02-10T06:18:11;104144.94;;;0.94;100.00
36726;BME280;44936;52.086;5.150;2023-02-10T06:20:36;104139.81;;;0.85;100.00
36726;BME280;44936;52.086;5.150;2023-02-10T06:23:02;104127.34;;;0.90;100.00
36726;BME280;44936;52.086;5.150;2023-02-10T06:25:28;104141.59;;;0.95;100.00
36726;BME280;44936;52.086;5.150;2023-02-10T06:27:53;104135.25;;;0.91;100.00
36726;BME280;44936;52.086;5.150;2023-02-10T06:30:20;104145.72;;;0.93;100.00
36726;BME280;44936;52.086;5.150;2023-02-10T06:32:49;104143.91;;;0.92;100.00
36726;BME280;44936;52.086;5.150;2023-02-10T06:35:14;104139.91;;;0.95;100.00
36726;BME280;44936;52.086;5.150;2023-02-10T06:37:40;104140.69;;;0.94;100.00
36726;BME280;44936;52.086;5.150;2023-02-10T06:40:06;104138.25;;;0.96;100.00
36726;BME280;44936;52.086;5.150;2023-02-10T06:42:32;104152.25;;;0.98;100.00
36726;BME280;44936;52.086;5.150;2023-02-10T06:44:57;104143.63;;;0.89;100.00
36726;BME280;44936;52.086;5.150;2023-02-10T06:47:23;104158.47;;;1.00;100.00
36726;BME280;44936;52.086;5.150;2023-02-10T06:49:48;104153.97;;;0.89;100.00
36726;BME280;44936;52.086;5.150;2023-02-10T06:52:13;104168.97;;;0.93;100.00
36726;BME280;44936;52.086;5.150;2023-02-10T06:54:39;104172.94;;;0.98;100.00
36726;BME280;44936;52.086;5.150;2023-02-10T06:57:04;104177.59;;;1.02;100.00
36726;BME280;44936;52.086;5.150;2023-02-10T06:59:32;104180.06;;;1.00;100.00
36726;BME280;44936;52.086;5.150;2023-02-10T07:01:57;104177.78;;;0.95;100.00
36726;BME280;44936;52.086;5.150;2023-02-10T07:04:27;104201.47;;;1.08;100.00
36726;BME280;44936;52.086;5.150;2023-02-10T07:06:52;104201.31;;;1.06;100.00
36726;BME280;44936;52.086;5.150;2023-02-10T07:09:17;104205.88;;;1.09;100.00
36726;BME280;44936;52.086;5.150;2023-02-10T07:11:43;104204.19;;;1.09;100.00
36726;BME280;44936;52.086;5.150;2023-02-10T07:14:08;104205.06;;;1.19;100.00
36726;BME280;44936;52.086;5.150;2023-02-10T07:16:33;104173.78;;;1.07;100.00
36726;BME280;44936;52.086;5.150;2023-02-10T07:18:59;104201.84;;;1.21;100.00
36726;BME280;44936;52.086;5.150;2023-02-10T07:21:24;104196.81;;;1.23;100.00
36726;BME280;44936;52.086;5.150;2023-02-10T07:23:50;104203.19;;;1.26;100.00
36726;BME280;44936;52.086;5.150;2023-02-10T07:26:16;104185.56;;;1.22;100.00
36726;BME280;44936;52.086;5.150;2023-02-10T07:28:43;104221.72;;;1.31;100.00
36726;BME280;44936;52.086;5.150;2023-02-10T07:31:09;104225.72;;;1.27;100.00
36726;BME280;44936;52.086;5.150;2023-02-10T07:33:34;104239.78;;;1.39;100.00
36726;BME280;44936;52.086;5.150;2023-02-10T07:36:00;104246.78;;;1.40;100.00
36726;BME280;44936;52.086;5.150;2023-02-10T07:38:27;104258.44;;;1.54;100.00
36726;BME280;44936;52.086;5.150;2023-02-10T07:40:52;104229.56;;;1.41;100.00
36726;BME280;44936;52.086;5.150;2023-02-10T07:43:18;104208.19;;;1.33;100.00
36726;BME280;44936;52.086;5.150;2023-02-10T07:45:43;104262.94;;;1.65;100.00
36726;BME280;44936;52.086;5.150;2023-02-10T07:48:09;104239.41;;;1.54;100.00
36726;BME280;44936;52.086;5.150;2023-02-10T07:50:35;104239.88;;;1.50;100.00
36726;BME280;44936;52.086;5.150;2023-02-10T07:53:00;104274.81;;;1.63;100.00
36726;BME280;44936;52.086;5.150;2023-02-10T07:55:26;104251.31;;;1.52;100.00
36726;BME280;44936;52.086;5.150;2023-02-10T07:57:52;104266.47;;;1.57;100.00
36726;BME280;44936;52.086;5.150;2023-02-10T08:00:18;104276.50;;;1.63;100.00
36726;BME280;44936;52.086;5.150;2023-02-10T08:02:43;104273.91;;;1.63;100.00
36726;BME280;44936;52.086;5.150;2023-02-10T08:05:09;104225.72;;;1.27;100.00
36726;BME280;44936;52.086;5.150;2023-02-10T08:07:35;104297.66;;;1.59;100.00
36726;BME280;44936;52.086;5.150;2023-02-10T08:10:01;104296.03;;;1.59;100.00
36726;BME280;44936;52.086;5.150;2023-02-10T08:12:26;104289.16;;;1.60;100.00
36726;BME280;44936;52.086;5.150;2023-02-10T08:14:52;104270.38;;;1.44;100.00
36726;BME280;44936;52.086;5.150;2023-02-10T08:17:18;104281.63;;;1.44;100.00
36726;BME280;44936;52.086;5.150;2023-02-10T08:19:43;104289.47;;;1.54;100.00
36726;BME280;44936;52.086;5.150;2023-02-10T08:22:09;104293.75;;;1.54;100.00
36726;BME280;44936;52.086;5.150;2023-02-10T08:24:34;104286.75;;;1.53;100.00
36726;BME280;44936;52.086;5.150;2023-02-10T08:27:00;104276.28;;;1.51;100.00
36726;BME280;44936;52.086;5.150;2023-02-10T08:29:25;104291.31;;;1.55;100.00
36726;BME280;44936;52.086;5.150;2023-02-10T08:31:51;104288.72;;;1.55;100.00
36726;BME280;44936;52.086;5.150;2023-02-10T08:34:19;104282.19;;;1.50;100.00
36726;BME280;44936;52.086;5.150;2023-02-10T08:36:45;104289.47;;;1.54;100.00
36726;BME280;44936;52.086;5.150;2023-02-10T08:39:12;104271.69;;;1.49;100.00
36726;BME280;44936;52.086;5.150;2023-02-10T08:41:38;104301.03;;;1.58;100.00
36726;BME280;44936;52.086;5.150;2023-02-10T08:44:04;104237.25;;;1.31;100.00
36726;BME280;44936;52.086;5.150;2023-02-10T08:46:30;104299.75;;;1.72;100.00
36726;BME280;44936;52.086;5.150;2023-02-10T08:48:56;104250.09;;;1.48;100.00
36726;BME280;44936;52.086;5.150;2023-02-10T08:51:22;104298.69;;;1.69;100.00
36726;BME280;44936;52.086;5.150;2023-02-10T08:53:47;104293.31;;;1.77;100.00
36726;BME280;44936;52.086;5.150;2023-02-10T08:56:17;104216.22;;;1.36;100.00
36726;BME280;44936;52.086;5.150;2023-02-10T08:58:44;104292.72;;;1.79;100.00
36726;BME280;44936;52.086;5.150;2023-02-10T09:01:16;104311.38;;;1.85;100.00
36726;BME280;44936;52.086;5.150;2023-02-10T09:03:42;104323.09;;;1.90;100.00
36726;BME280;44936;52.086;5.150;2023-02-10T09:06:35;104321.84;;;1.95;100.00
36726;BME280;44936;52.086;5.150;2023-02-10T09:09:05;104327.59;;;2.02;100.00
36726;BME280;44936;52.086;5.150;2023-02-10T09:11:31;104282.97;;;1.77;100.00
36726;BME280;44936;52.086;5.150;2023-02-10T09:13:56;104335.44;;;2.12;100.00
36726;BME280;44936;52.086;5.150;2023-02-10T09:16:23;104334.41;;;2.10;100.00
36726;BME280;44936;52.086;5.150;2023-02-10T09:18:48;104333.63;;;2.11;100.00
36726;BME280;44936;52.086;5.150;2023-02-10T09:21:18;104341.97;;;2.17;100.00
36726;BME280;44936;52.086;5.150;2023-02-10T09:23:47;104333.63;;;2.11;100.00
36726;BME280;44936;52.086;5.150;2023-02-10T09:26:12;104338.59;;;2.18;100.00
36726;BME280;44936;52.086;5.150;2023-02-10T09:28:38;104337.63;;;2.26;100.00
36726;BME280;44936;52.086;5.150;2023-02-10T09:31:06;104340.03;;;2.33;100.00
36726;BME280;44936;52.086;5.150;2023-02-10T09:33:31;104323.22;;;2.19;100.00
36726;BME280;44936;52.086;5.150;2023-02-10T09:35:57;104320.09;;;2.32;100.00
36726;BME280;44936;52.086;5.150;2023-02-10T09:38:22;104338.16;;;2.41;100.00
36726;BME280;44936;52.086;5.150;2023-02-10T09:43:50;104321.34;;;2.46;100.00
36726;BME280;44936;52.086;5.150;2023-02-10T09:46:54;104331.69;;;2.65;100.00
36726;BME280;44936;52.086;5.150;2023-02-10T09:49:32;104329.94;;;2.74;100.00
36726;BME280;44936;52.086;5.150;2023-02-10T09:55:11;104335.69;;;2.80;100.00
36726;BME280;44936;52.086;5.150;2023-02-10T09:57:41;104336.13;;;2.84;100.00
36726;BME280;44936;52.086;5.150;2023-02-10T10:00:43;104313.63;;;2.75;100.00
36726;BME280;44936;52.086;5.150;2023-02-10T10:03:15;104338.88;;;2.96;100.00
36726;BME280;44936;52.086;5.150;2023-02-10T10:09:02;104353.59;;;3.06;100.00
36726;BME280;44936;52.086;5.150;2023-02-10T10:14:04;104355.06;;;3.12;100.00
36726;BME280;44936;52.086;5.150;2023-02-10T10:19:43;104351.84;;;3.25;100.00
36726;BME280;44936;52.086;5.150;2023-02-10T10:22:28;104341.66;;;3.37;100.00
36726;BME280;44936;52.086;5.150;2023-02-10T10:31:17;104344.44;;;3.59;100.00
36726;BME280;44936;52.086;5.150;2023-02-10T10:33:29;104343.31;;;3.65;100.00
36726;BME280;44936;52.086;5.150;2023-02-10T10:35:56;104317.72;;;3.60;100.00
36726;BME280;44936;52.086;5.150;2023-02-10T10:38:33;104331.13;;;3.75;100.00
36726;BME280;44936;52.086;5.150;2023-02-10T10:41:07;104336.31;;;3.85;100.00
36726;BME280;44936;52.086;5.150;2023-02-10T10:43:47;104328.53;;;3.95;100.00
36726;BME280;44936;52.086;5.150;2023-02-10T10:46:24;104332.59;;;4.02;100.00
36726;BME280;44936;52.086;5.150;2023-02-10T10:48:52;104325.69;;;3.92;100.00
36726;BME280;44936;52.086;5.150;2023-02-10T10:51:17;104334.81;;;4.07;100.00
36726;BME280;44936;52.086;5.150;2023-02-10T10:53:55;104345.94;;;4.06;100.00
36726;BME280;44936;52.086;5.150;2023-02-10T10:56:30;104338.69;;;4.12;100.00
36726;BME280;44936;52.086;5.150;2023-02-10T10:58:59;104294.13;;;3.97;100.00
36726;BME280;44936;52.086;5.150;2023-02-10T11:01:37;104333.75;;;4.25;100.00
36726;BME280;44936;52.086;5.150;2023-02-10T11:04:05;104317.78;;;4.21;100.00
36726;BME280;44936;52.086;5.150;2023-02-10T11:06:34;104327.00;;;4.38;100.00
36726;BME280;44936;52.086;5.150;2023-02-10T11:09:01;104324.78;;;4.32;100.00
36726;BME280;44936;52.086;5.150;2023-02-10T11:11:38;104323.88;;;4.42;100.00
36726;BME280;44936;52.086;5.150;2023-02-10T11:14:23;104301.63;;;4.45;100.00
36726;BME280;44936;52.086;5.150;2023-02-10T11:16:57;104301.34;;;4.63;100.00
36726;BME280;44936;52.086;5.150;2023-02-10T11:19:31;104304.97;;;4.65;100.00
36726;BME280;44936;52.086;5.150;2023-02-10T11:21:58;104298.31;;;4.78;100.00
36726;BME280;44936;52.086;5.150;2023-02-10T11:27:05;104287.50;;;4.84;100.00
36726;BME280;44936;52.086;5.150;2023-02-10T11:29:35;104269.66;;;4.89;100.00
36726;BME280;44936;52.086;5.150;2023-02-10T11:32:04;104244.97;;;4.83;100.00
36726;BME280;44936;52.086;5.150;2023-02-10T11:34:33;104256.84;;;5.02;100.00
36726;BME280;44936;52.086;5.150;2023-02-10T11:37:19;104246.16;;;5.09;100.00
36726;BME280;44936;52.086;5.150;2023-02-10T11:39:46;104238.72;;;5.14;100.00
36726;BME280;44936;52.086;5.150;2023-02-10T11:42:21;104228.06;;;5.10;100.00
36726;BME280;44936;52.086;5.150;2023-02-10T11:47:21;104220.38;;;5.34;100.00
36726;BME280;44936;52.086;5.150;2023-02-10T11:49:48;104216.06;;;5.34;100.00
36726;BME280;44936;52.086;5.150;2023-02-10T11:52:16;104240.34;;;5.45;100.00
36726;BME280;44936;52.086;5.150;2023-02-10T11:54:42;104227.44;;;5.47;100.00
36726;BME280;44936;52.086;5.150;2023-02-10T11:57:42;104228.16;;;5.56;100.00
36726;BME280;44936;52.086;5.150;2023-02-10T12:00:51;104216.59;;;5.52;100.00
36726;BME280;44936;52.086;5.150;2023-02-10T12:03:33;104199.66;;;5.57;100.00
36726;BME280;44936;52.086;5.150;2023-02-10T12:06:05;104193.44;;;5.67;100.00
36726;BME280;44936;52.086;5.150;2023-02-10T12:09:02;104197.59;;;5.65;100.00
36726;BME280;44936;52.086;5.150;2023-02-10T12:19:50;104212.38;;;5.76;100.00
36726;BME280;44936;52.086;5.150;2023-02-10T12:22:32;104190.97;;;5.80;100.00
36726;BME280;44936;52.086;5.150;2023-02-10T12:28:00;104207.69;;;6.06;100.00
36726;BME280;44936;52.086;5.150;2023-02-10T12:33:20;104190.13;;;6.27;100.00
36726;BME280;44936;52.086;5.150;2023-02-10T12:39:14;104120.41;;;6.36;100.00
36726;BME280;44936;52.086;5.150;2023-02-10T12:50:43;104118.44;;;6.68;100.00
36726;BME280;44936;52.086;5.150;2023-02-10T12:53:21;104135.69;;;6.66;100.00
36726;BME280;44936;52.086;5.150;2023-02-10T12:56:01;104126.47;;;6.71;100.00
36726;BME280;44936;52.086;5.150;2023-02-10T12:58:35;104119.22;;;6.67;100.00
36726;BME280;44936;52.086;5.150;2023-02-10T13:01:19;104085.47;;;6.57;100.00
36726;BME280;44936;52.086;5.150;2023-02-10T13:03:51;104077.78;;;6.47;100.00
36726;BME280;44936;52.086;5.150;2023-02-10T13:06:31;104090.78;;;6.59;100.00
36726;BME280;44936;52.086;5.150;2023-02-10T13:11:40;104114.16;;;6.57;100.00
36726;BME280;44936;52.086;5.150;2023-02-10T13:14:23;104131.28;;;6.53;100.00
36726;BME280;44936;52.086;5.150;2023-02-10T13:16:55;104108.75;;;6.42;100.00
36726;BME280;44936;52.086;5.150;2023-02-10T13:22:10;104108.75;;;6.42;100.00
36726;BME280;44936;52.086;5.150;2023-02-10T13:24:44;104109.06;;;6.59;100.00
36726;BME280;44936;52.086;5.150;2023-02-10T13:27:27;104101.03;;;6.56;100.00
36726;BME280;44936;52.086;5.150;2023-02-10T13:30:26;104093.75;;;6.63;100.00
36726;BME280;44936;52.086;5.150;2023-02-10T13:35:47;104086.66;;;6.74;100.00
36726;BME280;44936;52.086;5.150;2023-02-10T13:38:19;104080.84;;;6.78;100.00
36726;BME280;44936;52.086;5.150;2023-02-10T13:43:25;104086.22;;;6.68;100.00
36726;BME280;44936;52.086;5.150;2023-02-10T13:45:52;104077.03;;;6.73;100.00
36726;BME280;44936;52.086;5.150;2023-02-10T13:48:27;104060.84;;;6.65;100.00
36726;BME280;44936;52.086;5.150;2023-02-10T13:51:00;104070.69;;;6.69;100.00
36726;BME280;44936;52.086;5.150;2023-02-10T13:58:57;104065.91;;;6.75;100.00
36726;BME280;44936;52.086;5.150;2023-02-10T14:06:53;104089.28;;;6.74;100.00
36726;BME280;44936;52.086;5.150;2023-02-10T14:11:55;104095.50;;;6.76;100.00
36726;BME280;44936;52.086;5.150;2023-02-10T14:17:21;104041.41;;;6.48;100.00
36726;BME280;44936;52.086;5.150;2023-02-10T14:19:50;104033.22;;;6.44;100.00
36726;BME280;44936;52.086;5.150;2023-02-10T14:24:55;104073.72;;;6.75;100.00
36726;BME280;44936;52.086;5.150;2023-02-10T14:27:25;104071.97;;;6.88;100.00
36726;BME280;44936;52.086;5.150;2023-02-10T14:29:58;104067.38;;;6.97;100.00
36726;BME280;44936;52.086;5.150;2023-02-10T14:32:25;104069.34;;;7.13;100.00
36726;BME280;44936;52.086;5.150;2023-02-10T14:34:55;104069.59;;;7.16;100.00
36726;BME280;44936;52.086;5.150;2023-02-10T14:37:21;104055.31;;;7.24;100.00
36726;BME280;44936;52.086;5.150;2023-02-10T14:39:55;104046.53;;;7.35;100.00
36726;BME280;44936;52.086;5.150;2023-02-10T14:42:23;104049.75;;;7.44;100.00
36726;BME280;44936;52.086;5.150;2023-02-10T14:44:52;104028.28;;;7.61;100.00
36726;BME280;44936;52.086;5.150;2023-02-10T14:47:29;104038.53;;;7.72;100.00